createdAt,value
2023-04-30T00:01:40.687Z,62.81
2023-04-30T00:04:42.228Z,62.50
2023-04-30T00:07:43.884Z,62.25
2023-04-30T00:10:45.552Z,62.44
2023-04-30T00:13:47.131Z,62.38
2023-04-30T00:16:49.370Z,61.06
2023-04-30T00:19:51.441Z,61.83
2023-04-30T00:22:55.344Z,62.50
2023-04-30T00:25:57.188Z,61.51
2023-04-30T00:28:58.824Z,60.88
2023-04-30T00:32:01.455Z,61.00
2023-04-30T00:35:03.478Z,60.98
2023-04-30T00:38:05.194Z,60.75
2023-04-30T00:41:06.772Z,61.41
2023-04-30T00:44:08.555Z,60.90
2023-04-30T00:47:10.991Z,62.07
2023-04-30T00:50:15.258Z,60.93
2023-04-30T00:53:17.499Z,61.90
2023-04-30T00:56:18.938Z,61.05
2023-04-30T00:59:21.682Z,61.26
2023-04-30T01:02:24.265Z,61.56
2023-04-30T01:05:26.164Z,61.92
2023-04-30T01:08:27.861Z,63.09
2023-04-30T01:11:41.085Z,62.71
2023-04-30T01:14:54.476Z,62.97
2023-04-30T01:18:02.651Z,62.98
2023-04-30T01:21:07.663Z,63.81
2023-04-30T01:24:41.544Z,64.11
2023-04-30T01:28:08.423Z,63.95
2023-04-30T01:31:13.909Z,64.58
2023-04-30T01:34:15.749Z,64.36
2023-04-30T01:37:24.662Z,64.42
2023-04-30T01:40:35.597Z,65.63
2023-04-30T01:43:47.022Z,65.41
2023-04-30T01:46:58.602Z,65.42
2023-04-30T01:50:11.876Z,65.26
2023-04-30T01:53:19.545Z,65.67
2023-04-30T01:56:27.884Z,65.89
2023-04-30T01:59:34.742Z,66.69
2023-04-30T02:02:36.463Z,66.15
2023-04-30T02:09:04.776Z,66.65
2023-04-30T02:12:06.894Z,66.90
2023-04-30T02:15:10.221Z,67.01
2023-04-30T02:18:11.785Z,66.84
2023-04-30T02:21:13.673Z,67.53
2023-04-30T02:24:15.145Z,67.07
2023-04-30T02:27:17.018Z,67.59
2023-04-30T02:30:20.221Z,67.56
2023-04-30T02:33:22.026Z,67.49
2023-04-30T02:36:26.758Z,68.38
2023-04-30T02:39:28.333Z,67.61
2023-04-30T02:42:30.195Z,68.02
2023-04-30T02:45:32.399Z,68.45
2023-04-30T02:48:34.365Z,69.38
2023-04-30T02:51:35.779Z,68.78
2023-04-30T02:54:37.759Z,68.74
2023-04-30T02:57:39.403Z,69.21
2023-04-30T03:00:41.799Z,69.13
2023-04-30T03:03:43.665Z,68.97
2023-04-30T03:06:45.382Z,69.24
2023-04-30T03:09:47.289Z,69.47
2023-04-30T03:12:48.800Z,69.17
2023-04-30T03:15:56.428Z,69.20
2023-04-30T03:18:58.018Z,69.74
2023-04-30T03:22:02.401Z,68.77
2023-04-30T03:25:04.863Z,69.17
2023-04-30T03:28:06.328Z,69.00
2023-04-30T03:31:08.633Z,68.74
2023-04-30T03:34:10.784Z,68.92
2023-04-30T03:37:12.703Z,69.40
2023-04-30T03:40:14.238Z,69.78
2023-04-30T03:43:16.022Z,69.70
2023-04-30T03:46:18.384Z,69.69
2023-04-30T03:49:20.389Z,69.53
2023-04-30T03:52:22.170Z,69.85
2023-04-30T03:55:23.977Z,69.52
2023-04-30T03:58:25.753Z,70.21
2023-04-30T04:01:29.568Z,69.32
2023-04-30T04:04:31.328Z,69.61
2023-04-30T04:07:33.325Z,69.40
2023-04-30T04:10:35.210Z,69.65
2023-04-30T04:13:37.320Z,69.83
2023-04-30T04:16:39.542Z,69.34
2023-04-30T04:19:41.582Z,68.96
2023-04-30T04:22:43.332Z,69.70
2023-04-30T04:25:48.878Z,69.07
2023-04-30T04:28:51.205Z,69.68
2023-04-30T04:31:54.708Z,69.30
2023-04-30T04:34:59.453Z,68.55
2023-04-30T04:38:01.434Z,68.58
2023-04-30T04:41:02.999Z,68.16
2023-04-30T04:44:05.370Z,66.99
2023-04-30T04:47:07.851Z,66.13
2023-04-30T04:50:10.553Z,65.18
2023-04-30T04:53:12.890Z,64.84
2023-04-30T04:56:14.593Z,63.44
2023-04-30T04:59:17.941Z,62.49
2023-04-30T05:02:20.567Z,61.20
2023-04-30T05:05:22.167Z,61.26
2023-04-30T05:08:23.600Z,59.73
2023-04-30T05:11:25.099Z,57.12
2023-04-30T05:14:26.820Z,58.05
2023-04-30T05:17:28.977Z,56.97
2023-04-30T05:20:30.801Z,56.91
2023-04-30T05:23:32.425Z,56.46
2023-04-30T05:26:33.881Z,54.22
2023-04-30T05:29:35.701Z,55.81
2023-04-30T05:32:37.907Z,55.98
2023-04-30T05:35:39.679Z,55.60
2023-04-30T05:38:41.819Z,55.96
2023-04-30T05:41:43.621Z,53.88
2023-04-30T05:44:45.542Z,56.55
2023-04-30T05:47:47.955Z,56.54
2023-04-30T05:50:51.074Z,57.03
2023-04-30T05:53:52.523Z,57.63
2023-04-30T05:56:54.188Z,55.18
2023-04-30T05:59:55.713Z,56.25
2023-04-30T06:02:58.419Z,55.10
2023-04-30T06:06:00.042Z,54.79
2023-04-30T06:09:01.828Z,54.42
2023-04-30T06:12:03.588Z,52.46
2023-04-30T06:15:06.940Z,53.43
2023-04-30T06:18:09.086Z,52.38
2023-04-30T06:21:10.894Z,52.75
2023-04-30T06:24:12.420Z,51.79
2023-04-30T06:27:14.028Z,50.99
2023-04-30T06:30:15.608Z,48.17
2023-04-30T06:33:17.843Z,47.65
2023-04-30T06:36:22.398Z,48.48
2023-04-30T06:39:24.108Z,46.20
2023-04-30T06:42:25.702Z,46.73
2023-04-30T06:45:28.169Z,45.90
2023-04-30T06:48:30.793Z,44.55
2023-04-30T06:51:34.523Z,46.05
2023-04-30T06:54:36.066Z,45.56
2023-04-30T06:57:37.984Z,43.80
2023-04-30T07:00:39.689Z,44.85
2023-04-30T07:03:42.026Z,45.18
2023-04-30T07:06:43.652Z,43.05
2023-04-30T07:09:45.183Z,41.49
2023-04-30T07:12:46.562Z,39.99
2023-04-30T07:15:48.112Z,40.84
2023-04-30T07:18:50.370Z,40.65
2023-04-30T07:21:51.782Z,40.81
2023-04-30T07:24:53.105Z,38.29
2023-04-30T07:27:54.959Z,37.66
2023-04-30T07:30:56.240Z,38.43
2023-04-30T07:33:58.432Z,37.02
2023-04-30T07:37:00.418Z,37.44
2023-04-30T07:40:02.523Z,35.29
2023-04-30T07:43:04.357Z,34.89
2023-04-30T07:46:05.736Z,36.52
2023-04-30T07:49:07.801Z,35.53
2023-04-30T07:52:10.345Z,34.73
2023-04-30T07:55:11.701Z,34.83
2023-04-30T07:58:12.991Z,35.35
2023-04-30T08:01:15.139Z,33.84
2023-04-30T08:04:17.113Z,34.12
2023-04-30T08:07:20.364Z,33.14
2023-04-30T08:10:21.813Z,32.96
2023-04-30T08:13:23.146Z,31.95
2023-04-30T08:16:24.559Z,30.58
2023-04-30T08:19:26.617Z,30.46
2023-04-30T08:22:27.995Z,31.96
2023-04-30T08:25:30.859Z,32.80
2023-04-30T08:28:32.125Z,31.33
2023-04-30T08:31:33.710Z,29.32
2023-04-30T08:34:35.701Z,30.28
2023-04-30T08:37:36.996Z,30.13
2023-04-30T08:40:51.030Z,30.13
2023-04-30T08:43:53.685Z,29.45
2023-04-30T08:46:57.245Z,29.20
2023-04-30T08:49:59.697Z,26.84
2023-04-30T08:53:02.141Z,25.88
2023-04-30T08:56:04.326Z,26.02
2023-04-30T08:59:05.646Z,25.47
2023-04-30T09:02:09.281Z,25.21
2023-04-30T09:05:13.403Z,24.91
2023-04-30T09:08:18.282Z,24.83
2023-04-30T09:11:27.257Z,24.75
2023-04-30T09:14:28.838Z,24.20
2023-04-30T09:17:30.872Z,24.53
2023-04-30T09:20:33.375Z,24.62
2023-04-30T09:23:34.795Z,23.87
2023-04-30T09:26:38.371Z,24.87
2023-04-30T09:29:39.688Z,24.89
2023-04-30T09:32:54.754Z,25.00
2023-04-30T09:35:57.053Z,24.32
2023-04-30T09:39:08.880Z,25.31
2023-04-30T09:42:11.542Z,24.25
2023-04-30T09:45:12.883Z,24.96
2023-04-30T09:48:17.721Z,25.00
2023-04-30T09:51:23.226Z,25.12
2023-04-30T09:54:26.567Z,23.52
2023-04-30T09:57:30.962Z,25.40
2023-04-30T10:00:34.268Z,25.36
2023-04-30T10:03:36.246Z,23.74
2023-04-30T10:06:39.107Z,24.74
2023-04-30T10:09:44.559Z,24.41
2023-04-30T10:12:50.956Z,25.47
2023-04-30T10:15:58.348Z,24.94
2023-04-30T10:19:06.919Z,23.62
2023-04-30T10:22:10.398Z,23.90
2023-04-30T10:25:13.006Z,24.25
2023-04-30T10:28:14.595Z,23.70
2023-04-30T10:31:18.536Z,25.24
2023-04-30T10:34:27.874Z,25.03
2023-04-30T10:37:36.206Z,24.59
2023-04-30T10:40:37.742Z,25.29
2023-04-30T10:43:39.141Z,24.90
2023-04-30T10:46:40.937Z,24.52
2023-04-30T10:49:47.385Z,23.53
2023-04-30T10:53:02.701Z,24.48
2023-04-30T10:56:06.677Z,23.61
2023-04-30T10:59:08.683Z,23.87
2023-04-30T11:02:11.117Z,23.58
2023-04-30T11:05:14.033Z,22.81
2023-04-30T11:08:16.259Z,22.21
2023-04-30T11:11:20.253Z,23.09
2023-04-30T11:14:22.216Z,24.13
2023-04-30T11:17:24.309Z,24.08
2023-04-30T11:20:26.355Z,24.67
2023-04-30T11:23:40.057Z,22.16
2023-04-30T11:27:05.211Z,22.96
2023-04-30T11:30:12.446Z,24.00
2023-04-30T11:33:14.310Z,24.24
2023-04-30T11:36:16.466Z,25.50
2023-04-30T11:39:18.794Z,24.39
2023-04-30T11:42:20.533Z,22.84
2023-04-30T11:45:22.664Z,24.12
2023-04-30T11:48:24.012Z,24.96
2023-04-30T11:51:26.451Z,25.09
2023-04-30T11:54:31.401Z,24.73
2023-04-30T11:57:35.384Z,25.38
2023-04-30T12:00:37.511Z,24.99
2023-04-30T12:03:43.533Z,23.96
2023-04-30T12:06:44.954Z,25.06
2023-04-30T12:09:54.256Z,24.14
2023-04-30T12:12:55.698Z,23.72
2023-04-30T12:15:58.938Z,23.92
2023-04-30T12:19:00.314Z,24.19
2023-04-30T12:22:01.998Z,25.29
2023-04-30T12:25:09.087Z,24.20
2023-04-30T12:28:11.048Z,25.01
2023-04-30T12:31:12.377Z,25.64
2023-04-30T12:34:15.244Z,26.69
2023-04-30T12:37:16.990Z,25.68
2023-04-30T12:40:20.122Z,25.51
2023-04-30T12:43:21.516Z,25.87
2023-04-30T12:46:27.051Z,25.74
2023-04-30T12:49:30.126Z,25.39
2023-04-30T12:52:32.961Z,26.76
2023-04-30T12:55:37.031Z,25.98
2023-04-30T12:58:39.192Z,25.99
2023-04-30T13:01:44.898Z,26.68
2023-04-30T13:04:46.226Z,27.02
2023-04-30T13:07:49.224Z,26.79
2023-04-30T13:10:51.401Z,26.67
2023-04-30T13:13:54.529Z,26.82
2023-04-30T13:16:55.805Z,25.62
2023-04-30T13:19:57.490Z,27.15
2023-04-30T13:22:58.952Z,25.47
2023-04-30T13:26:09.292Z,26.27
2023-04-30T13:29:11.253Z,26.39
2023-04-30T13:32:12.557Z,25.91
2023-04-30T13:35:13.870Z,26.28
2023-04-30T13:38:15.258Z,27.27
2023-04-30T13:41:17.385Z,27.70
2023-04-30T13:44:18.692Z,27.39
2023-04-30T13:47:21.126Z,27.27
2023-04-30T13:50:22.429Z,27.39
2023-04-30T13:53:23.994Z,28.79
2023-04-30T13:56:26.151Z,28.25
2023-04-30T13:59:28.245Z,27.23
2023-04-30T14:02:29.828Z,27.84
2023-04-30T14:05:31.278Z,28.57
2023-04-30T14:08:33.121Z,28.23
2023-04-30T14:11:35.086Z,28.18
2023-04-30T14:14:39.149Z,28.07
2023-04-30T14:17:40.604Z,30.55
2023-04-30T14:20:42.061Z,30.32
2023-04-30T14:23:45.756Z,28.87
2023-04-30T14:26:47.876Z,28.85
2023-04-30T14:29:49.232Z,30.49
2023-04-30T14:32:50.513Z,29.98
2023-04-30T14:35:52.334Z,29.80
2023-04-30T14:38:53.929Z,29.38
2023-04-30T14:41:56.109Z,28.85
2023-04-30T14:44:57.521Z,29.87
2023-04-30T14:47:59.131Z,29.36
2023-04-30T14:51:00.635Z,30.26
2023-04-30T14:54:02.210Z,30.30
2023-04-30T14:57:04.932Z,30.68
2023-04-30T15:00:07.505Z,31.01
2023-04-30T15:03:09.014Z,31.34
2023-04-30T15:06:10.889Z,31.25
2023-04-30T15:09:13.063Z,30.12
2023-04-30T15:12:15.269Z,30.31
2023-04-30T15:15:18.784Z,30.27
2023-04-30T15:18:20.378Z,30.89
2023-04-30T15:21:21.829Z,31.05
2023-04-30T15:24:23.210Z,31.15
2023-04-30T15:27:26.904Z,31.77
2023-04-30T15:30:28.224Z,31.18
2023-04-30T15:33:30.754Z,31.70
2023-04-30T15:36:32.613Z,31.28
2023-04-30T15:39:34.460Z,30.94
2023-04-30T15:42:37.616Z,31.16
2023-04-30T15:45:39.041Z,31.03
2023-04-30T15:48:40.381Z,31.57
2023-04-30T15:51:41.876Z,31.86
2023-04-30T15:54:43.131Z,31.36
2023-04-30T15:58:01.867Z,31.76
2023-04-30T16:01:03.176Z,32.17
2023-04-30T16:04:04.796Z,31.69
2023-04-30T16:07:06.351Z,31.98
2023-04-30T16:10:09.699Z,32.44
2023-04-30T16:13:11.879Z,32.31
2023-04-30T16:16:13.701Z,31.89
2023-04-30T16:19:16.384Z,32.38
2023-04-30T16:22:17.886Z,32.68
2023-04-30T16:25:19.978Z,33.06
2023-04-30T16:28:22.934Z,33.06
2023-04-30T16:31:24.294Z,33.35
2023-04-30T16:34:25.602Z,33.08
2023-04-30T16:37:28.091Z,33.61
2023-04-30T16:40:30.149Z,33.58
2023-04-30T16:43:32.509Z,33.51
2023-04-30T16:46:34.405Z,33.27
2023-04-30T16:49:35.923Z,33.75
2023-04-30T16:52:37.310Z,33.80
2023-04-30T16:55:38.837Z,34.21
2023-04-30T16:58:40.942Z,34.80
2023-04-30T17:01:42.507Z,34.83
2023-04-30T17:04:43.890Z,34.42
2023-04-30T17:07:45.499Z,35.19
2023-04-30T17:10:47.303Z,34.74
2023-04-30T17:13:49.367Z,34.93
2023-04-30T17:16:50.763Z,34.65
2023-04-30T17:19:52.130Z,35.18
2023-04-30T17:22:55.360Z,34.98
2023-04-30T17:25:57.266Z,35.84
2023-04-30T17:28:59.315Z,35.79
2023-04-30T17:32:00.740Z,36.20
2023-04-30T17:35:02.862Z,35.91
2023-04-30T17:38:04.365Z,36.42
2023-04-30T17:41:06.022Z,36.43
2023-04-30T17:44:08.169Z,37.17
2023-04-30T17:47:12.468Z,36.60
2023-04-30T17:50:15.262Z,36.86
2023-04-30T17:53:16.638Z,37.33
2023-04-30T17:56:17.940Z,37.78
2023-04-30T17:59:19.929Z,38.04
2023-04-30T18:02:21.332Z,38.09
2023-04-30T18:05:22.697Z,37.98
2023-04-30T18:08:24.386Z,38.84
2023-04-30T18:11:25.680Z,38.74
2023-04-30T18:14:27.999Z,39.12
2023-04-30T18:17:29.315Z,39.90
2023-04-30T18:20:30.813Z,40.55
2023-04-30T18:23:32.159Z,41.24
2023-04-30T18:26:33.627Z,41.25
2023-04-30T18:29:36.341Z,41.83
2023-04-30T18:32:38.223Z,42.77
2023-04-30T18:35:39.750Z,42.82
2023-04-30T18:38:41.188Z,42.45
2023-04-30T18:41:45.429Z,43.05
2023-04-30T18:44:47.391Z,43.49
2023-04-30T18:47:48.849Z,43.73
2023-04-30T18:50:50.517Z,44.36
2023-04-30T18:53:52.088Z,45.22
2023-04-30T18:56:53.350Z,45.12
2023-04-30T18:59:55.885Z,45.75
2023-04-30T19:02:57.817Z,46.38
2023-04-30T19:05:59.309Z,46.29
2023-04-30T19:09:00.637Z,47.16
2023-04-30T19:12:03.021Z,46.96
2023-04-30T19:15:07.237Z,47.43
2023-04-30T19:18:12.398Z,47.73
2023-04-30T19:21:14.054Z,48.18
2023-04-30T19:24:15.660Z,47.45
2023-04-30T19:27:17.377Z,47.71
2023-04-30T19:30:23.678Z,48.37
2023-04-30T19:33:25.149Z,48.41
2023-04-30T19:36:26.609Z,48.13
2023-04-30T19:39:33.176Z,48.62
2023-04-30T19:42:34.484Z,49.16
2023-04-30T19:45:36.566Z,48.72
2023-04-30T19:48:37.864Z,49.28
2023-04-30T19:51:39.271Z,50.18
2023-04-30T19:54:44.573Z,49.68
2023-04-30T19:57:45.850Z,50.15
2023-04-30T20:00:48.074Z,50.58
2023-04-30T20:03:49.509Z,50.79
2023-04-30T20:06:56.193Z,50.98
2023-04-30T20:09:57.552Z,51.07
2023-04-30T20:12:59.189Z,51.26
2023-04-30T20:16:01.801Z,51.39
2023-04-30T20:19:03.466Z,51.39
2023-04-30T20:22:09.184Z,50.98
2023-04-30T20:25:10.552Z,51.68
2023-04-30T20:28:12.445Z,50.79
2023-04-30T20:31:14.418Z,51.21
2023-04-30T20:34:16.193Z,51.67
2023-04-30T20:37:17.498Z,52.12
2023-04-30T20:40:19.512Z,51.89
2023-04-30T20:43:20.792Z,51.61
2023-04-30T20:46:23.854Z,52.42
2023-04-30T20:49:26.453Z,52.81
2023-04-30T20:52:27.698Z,52.63
2023-04-30T20:55:29.307Z,52.28
2023-04-30T20:58:30.821Z,53.06
2023-04-30T21:01:33.291Z,53.19
2023-04-30T21:04:34.663Z,52.82
2023-04-30T21:07:36.096Z,53.59
2023-04-30T21:10:37.569Z,54.20
2023-04-30T21:13:38.990Z,54.34
2023-04-30T21:16:41.477Z,53.84
2023-04-30T21:19:43.152Z,54.00
2023-04-30T21:22:45.593Z,54.28
2023-04-30T21:25:47.079Z,54.34
2023-04-30T21:28:50.507Z,55.07
2023-04-30T21:31:54.336Z,55.21
2023-04-30T21:34:55.826Z,54.83
2023-04-30T21:37:57.101Z,55.94
2023-04-30T21:40:58.528Z,56.05
2023-04-30T21:43:59.986Z,56.24
2023-04-30T21:47:02.990Z,56.58
2023-04-30T21:50:05.328Z,55.67
2023-04-30T21:53:06.855Z,56.53
2023-04-30T21:56:08.374Z,56.47
2023-04-30T21:59:10.017Z,56.71
2023-04-30T22:02:22.715Z,56.64
2023-04-30T22:05:25.259Z,56.12
2023-04-30T22:08:27.204Z,57.27
2023-04-30T22:11:28.944Z,57.33
2023-04-30T22:14:30.387Z,57.75
2023-04-30T22:17:32.811Z,57.96
2023-04-30T22:20:34.550Z,57.64
2023-04-30T22:23:36.112Z,57.87
2023-04-30T22:26:37.378Z,57.93
2023-04-30T22:29:38.847Z,57.59
2023-04-30T22:32:41.530Z,58.24
2023-04-30T22:35:42.944Z,58.44
2023-04-30T22:38:44.230Z,59.02
2023-04-30T22:41:45.993Z,59.21
2023-04-30T22:44:48.119Z,58.99
2023-04-30T22:47:52.101Z,59.44
2023-04-30T22:50:54.704Z,59.29
2023-04-30T22:53:56.362Z,59.50
2023-04-30T22:56:59.183Z,59.24
2023-04-30T23:00:00.566Z,59.48
2023-04-30T23:03:03.090Z,59.11
2023-04-30T23:09:06.513Z,59.54
2023-04-30T23:12:08.648Z,60.26
2023-04-30T23:15:10.199Z,60.02
2023-04-30T23:18:12.581Z,60.62
2023-04-30T23:21:14.302Z,60.82
2023-04-30T23:24:15.921Z,60.80
2023-04-30T23:27:17.598Z,61.28
2023-04-30T23:30:19.429Z,61.79
2023-04-30T23:33:21.728Z,61.58
2023-04-30T23:36:23.353Z,60.93
2023-04-30T23:39:24.897Z,61.49
2023-04-30T23:42:26.429Z,61.28
2023-04-30T23:45:28.242Z,61.70
2023-04-30T23:48:30.491Z,61.32
2023-04-30T23:51:32.788Z,62.24
2023-04-30T23:54:35.080Z,62.49
2023-04-30T23:57:36.463Z,62.06
